createdAt,value
2023-06-30T00:01:59.979Z,94.64
2023-06-30T00:04:32.937Z,94.88
2023-06-30T00:07:03.627Z,95.13
2023-06-30T00:09:33.301Z,95.54
2023-06-30T00:12:03.491Z,95.55
2023-06-30T00:14:33.945Z,95.57
2023-06-30T00:17:04.624Z,96.07
2023-06-30T00:19:34.523Z,96.00
2023-06-30T00:22:04.609Z,96.00
2023-06-30T00:24:35.058Z,96.40
2023-06-30T00:27:05.820Z,96.40
2023-06-30T00:29:35.868Z,96.83
2023-06-30T00:32:06.763Z,96.64
2023-06-30T00:34:36.751Z,96.73
2023-06-30T00:37:06.742Z,96.99
2023-06-30T00:39:36.612Z,97.15
2023-06-30T00:42:06.958Z,96.88
2023-06-30T00:44:37.097Z,97.38
2023-06-30T00:47:07.913Z,97.37
2023-06-30T00:49:39.336Z,97.13
2023-06-30T00:52:10.428Z,97.09
2023-06-30T00:54:40.548Z,97.14
2023-06-30T00:57:11.658Z,97.81
2023-06-30T00:59:41.292Z,97.64
2023-06-30T01:02:27.373Z,97.91
2023-06-30T01:05:19.604Z,97.91
2023-06-30T01:08:17.136Z,98.09
2023-06-30T01:10:49.217Z,98.15
2023-06-30T01:13:20.427Z,97.97
2023-06-30T01:15:51.432Z,98.09
2023-06-30T01:18:23.347Z,98.00
2023-06-30T01:20:54.481Z,98.23
2023-06-30T01:23:37.983Z,97.88
2023-06-30T01:26:09.920Z,97.93
2023-06-30T01:28:41.742Z,98.41
2023-06-30T01:31:12.075Z,97.87
2023-06-30T01:33:44.302Z,97.97
2023-06-30T01:36:14.513Z,98.92
2023-06-30T01:38:46.073Z,98.31
2023-06-30T01:41:16.429Z,98.90
2023-06-30T01:43:47.873Z,98.62
2023-06-30T01:46:19.005Z,98.87
2023-06-30T01:48:49.813Z,98.84
2023-06-30T01:51:21.375Z,98.73
2023-06-30T01:53:53.214Z,98.94
2023-06-30T01:56:23.414Z,98.66
2023-06-30T01:58:53.693Z,98.76
2023-06-30T02:01:23.841Z,98.91
2023-06-30T02:03:54.785Z,98.50
2023-06-30T02:06:24.704Z,98.64
2023-06-30T02:08:54.651Z,98.28
2023-06-30T02:11:25.014Z,98.50
2023-06-30T02:13:55.173Z,98.62
2023-06-30T02:16:25.378Z,98.74
2023-06-30T02:18:57.113Z,98.72
2023-06-30T02:21:28.441Z,98.84
2023-06-30T02:23:58.642Z,98.63
2023-06-30T02:26:28.735Z,98.73
2023-06-30T02:29:01.957Z,98.72
2023-06-30T02:31:31.777Z,98.84
2023-06-30T02:34:02.412Z,99.12
2023-06-30T02:36:33.098Z,98.92
2023-06-30T02:39:03.282Z,98.83
2023-06-30T02:41:33.187Z,98.77
2023-06-30T02:44:03.467Z,98.79
2023-06-30T02:46:33.749Z,99.18
2023-06-30T02:49:04.201Z,99.15
2023-06-30T02:51:34.433Z,99.02
2023-06-30T02:54:05.064Z,99.00
2023-06-30T02:56:54.075Z,99.12
2023-06-30T02:59:24.377Z,99.07
2023-06-30T03:01:55.036Z,99.16
2023-06-30T03:04:25.361Z,99.32
2023-06-30T03:06:55.826Z,99.20
2023-06-30T03:09:26.136Z,98.96
2023-06-30T03:11:56.279Z,98.83
2023-06-30T03:14:27.233Z,99.87
2023-06-30T03:16:58.709Z,99.73
2023-06-30T03:19:29.030Z,99.61
2023-06-30T03:21:59.147Z,99.99
2023-06-30T03:24:29.995Z,99.99
2023-06-30T03:27:00.197Z,99.99
2023-06-30T03:29:30.963Z,99.98
2023-06-30T03:32:01.873Z,99.66
2023-06-30T03:34:32.031Z,99.05
2023-06-30T03:37:02.242Z,99.66
2023-06-30T03:39:32.390Z,99.06
2023-06-30T03:42:02.749Z,99.57
2023-06-30T03:44:33.018Z,99.25
2023-06-30T03:47:03.352Z,99.38
2023-06-30T03:49:33.517Z,99.89
2023-06-30T03:52:06.755Z,99.99
2023-06-30T03:54:36.961Z,99.66
2023-06-30T03:57:07.406Z,99.90
2023-06-30T03:59:37.599Z,99.75
2023-06-30T04:02:07.789Z,98.84
2023-06-30T04:04:37.851Z,99.30
2023-06-30T04:07:08.488Z,99.56
2023-06-30T04:09:38.843Z,99.24
2023-06-30T04:12:09.430Z,98.97
2023-06-30T04:14:39.577Z,99.14
2023-06-30T04:17:09.687Z,99.45
2023-06-30T04:19:39.890Z,99.13
2023-06-30T04:22:10.077Z,99.28
2023-06-30T04:24:40.776Z,98.86
2023-06-30T04:27:10.374Z,98.70
2023-06-30T04:29:40.976Z,98.74
2023-06-30T04:32:11.095Z,99.10
2023-06-30T04:34:41.019Z,99.34
2023-06-30T04:37:12.267Z,99.41
2023-06-30T04:39:42.602Z,99.36
2023-06-30T04:42:12.529Z,99.45
2023-06-30T04:44:42.526Z,99.53
2023-06-30T04:47:13.576Z,99.75
2023-06-30T04:49:43.750Z,99.67
2023-06-30T04:52:13.980Z,99.25
2023-06-30T04:54:43.990Z,99.04
2023-06-30T04:57:14.305Z,99.31
2023-06-30T04:59:44.491Z,99.46
2023-06-30T05:02:14.645Z,98.88
2023-06-30T05:04:45.459Z,98.77
2023-06-30T05:07:15.626Z,99.14
2023-06-30T05:09:46.552Z,99.28
2023-06-30T05:12:17.210Z,99.47
2023-06-30T05:14:47.185Z,99.52
2023-06-30T05:17:17.576Z,99.51
2023-06-30T05:19:47.774Z,99.22
2023-06-30T05:22:17.927Z,99.01
2023-06-30T05:24:48.156Z,99.01
2023-06-30T05:27:20.495Z,98.73
2023-06-30T05:29:51.158Z,99.34
2023-06-30T05:32:20.836Z,99.44
2023-06-30T05:34:52.901Z,98.70
2023-06-30T05:37:22.987Z,98.92
2023-06-30T05:39:53.184Z,98.62
2023-06-30T05:42:23.291Z,98.64
2023-06-30T05:44:53.658Z,98.97
2023-06-30T05:47:23.952Z,98.61
2023-06-30T05:49:54.075Z,97.97
2023-06-30T05:52:27.226Z,98.11
2023-06-30T05:54:57.407Z,97.34
2023-06-30T05:57:27.282Z,97.93
2023-06-30T05:59:57.495Z,97.26
2023-06-30T06:02:28.866Z,97.61
2023-06-30T06:04:59.269Z,97.94
2023-06-30T06:07:29.555Z,97.56
2023-06-30T06:09:59.771Z,98.06
2023-06-30T06:12:29.744Z,97.90
2023-06-30T06:14:59.637Z,97.82
2023-06-30T06:17:29.537Z,98.25
2023-06-30T06:20:00.449Z,98.27
2023-06-30T06:22:30.624Z,98.54
2023-06-30T06:25:00.794Z,98.27
2023-06-30T06:27:31.254Z,98.64
2023-06-30T06:30:01.219Z,99.23
2023-06-30T06:32:31.263Z,99.10
2023-06-30T06:35:01.427Z,98.79
2023-06-30T06:37:31.728Z,98.91
2023-06-30T06:40:01.947Z,99.13
2023-06-30T06:42:32.126Z,99.22
2023-06-30T06:45:02.286Z,98.71
2023-06-30T06:48:09.323Z,98.73
2023-06-30T06:50:39.587Z,99.07
2023-06-30T06:53:10.286Z,99.04
2023-06-30T06:55:40.028Z,99.39
2023-06-30T06:58:10.065Z,99.70
2023-06-30T07:00:40.223Z,99.99
2023-06-30T07:03:10.515Z,99.15
2023-06-30T07:05:44.181Z,98.48
2023-06-30T07:08:15.617Z,99.16
2023-06-30T07:10:49.363Z,98.36
2023-06-30T07:13:21.342Z,98.79
2023-06-30T07:15:52.542Z,98.85
2023-06-30T07:18:24.050Z,99.13
2023-06-30T07:20:57.078Z,98.62
2023-06-30T07:23:27.927Z,98.90
2023-06-30T07:25:58.078Z,98.20
2023-06-30T07:28:28.255Z,98.28
2023-06-30T07:30:58.754Z,97.96
2023-06-30T07:33:28.818Z,97.92
2023-06-30T07:35:58.635Z,98.46
2023-06-30T07:38:28.938Z,98.12
2023-06-30T07:41:01.262Z,97.62
2023-06-30T07:43:34.511Z,98.43
2023-06-30T07:46:04.659Z,99.08
2023-06-30T07:48:34.973Z,99.18
2023-06-30T07:51:09.242Z,99.29
2023-06-30T07:53:41.093Z,98.51
2023-06-30T07:56:11.219Z,98.59
2023-06-30T07:58:41.506Z,99.32
2023-06-30T08:01:11.707Z,99.27
2023-06-30T08:03:42.065Z,99.46
2023-06-30T08:06:12.614Z,99.85
2023-06-30T08:08:43.070Z,99.98
2023-06-30T08:11:14.306Z,99.99
2023-06-30T08:13:44.405Z,99.95
2023-06-30T08:16:15.306Z,99.76
2023-06-30T08:18:50.629Z,99.82
2023-06-30T08:21:22.754Z,99.24
2023-06-30T08:23:53.831Z,99.27
2023-06-30T08:26:23.999Z,99.09
2023-06-30T08:28:55.727Z,99.63
2023-06-30T08:31:26.303Z,99.99
2023-06-30T08:33:56.060Z,99.99
2023-06-30T08:36:26.273Z,99.99
2023-06-30T08:38:56.596Z,99.99
2023-06-30T08:41:28.101Z,99.99
2023-06-30T08:43:59.855Z,99.99
2023-06-30T08:46:31.570Z,99.99
2023-06-30T08:49:02.081Z,99.60
2023-06-30T08:51:32.635Z,99.99
2023-06-30T08:54:03.002Z,99.99
2023-06-30T08:56:36.278Z,99.99
2023-06-30T08:59:06.713Z,99.99
2023-06-30T09:01:39.014Z,99.99
2023-06-30T09:04:09.732Z,99.51
2023-06-30T09:06:45.198Z,99.66
2023-06-30T09:09:25.806Z,99.91
2023-06-30T09:11:56.601Z,99.81
2023-06-30T09:14:27.164Z,99.60
2023-06-30T09:16:57.369Z,99.99
2023-06-30T09:19:27.895Z,99.78
2023-06-30T09:22:00.889Z,99.99
2023-06-30T09:24:51.149Z,99.99
2023-06-30T09:27:21.523Z,99.94
2023-06-30T09:29:56.652Z,99.93
2023-06-30T09:32:47.124Z,99.52
2023-06-30T09:35:20.428Z,99.71
2023-06-30T09:37:50.612Z,99.94
2023-06-30T09:40:27.407Z,99.41
2023-06-30T09:42:57.549Z,99.99
2023-06-30T09:45:27.663Z,99.96
2023-06-30T09:47:58.046Z,99.99
2023-06-30T09:50:34.337Z,99.96
2023-06-30T09:53:04.782Z,99.97
2023-06-30T09:55:34.877Z,99.96
2023-06-30T09:58:05.043Z,99.66
2023-06-30T10:00:36.726Z,99.80
2023-06-30T10:03:08.919Z,99.65
2023-06-30T10:05:40.457Z,99.55
2023-06-30T10:08:12.050Z,99.86
2023-06-30T10:10:46.223Z,99.23
2023-06-30T10:13:18.489Z,99.61
2023-06-30T10:15:49.400Z,99.64
2023-06-30T10:18:21.199Z,99.43
2023-06-30T10:20:51.784Z,98.94
2023-06-30T10:23:23.508Z,98.77
2023-06-30T10:25:54.017Z,99.54
2023-06-30T10:28:24.634Z,99.18
2023-06-30T10:30:54.395Z,98.91
2023-06-30T10:33:24.337Z,98.50
2023-06-30T10:35:55.395Z,98.44
2023-06-30T10:38:26.145Z,98.73
2023-06-30T10:41:16.647Z,98.09
2023-06-30T10:44:05.904Z,97.53
2023-06-30T10:46:50.662Z,97.62
2023-06-30T10:49:29.469Z,97.53
2023-06-30T10:52:04.144Z,97.56
2023-06-30T10:55:09.561Z,97.34
2023-06-30T10:57:41.362Z,96.97
2023-06-30T11:00:13.509Z,97.32
2023-06-30T11:02:52.121Z,96.11
2023-06-30T11:05:26.642Z,96.56
2023-06-30T11:08:11.468Z,97.03
2023-06-30T11:10:52.678Z,96.29
2023-06-30T11:13:39.562Z,96.47
2023-06-30T11:16:10.707Z,96.51
2023-06-30T11:18:43.497Z,96.93
2023-06-30T11:21:14.420Z,97.14
2023-06-30T11:23:46.364Z,97.36
2023-06-30T11:26:21.181Z,96.92
2023-06-30T11:28:53.124Z,96.89
2023-06-30T11:31:24.182Z,97.76
2023-06-30T11:33:54.269Z,97.61
2023-06-30T11:36:24.984Z,97.02
2023-06-30T11:38:54.896Z,97.32
2023-06-30T11:41:26.134Z,97.09
2023-06-30T11:44:00.455Z,97.30
2023-06-30T11:46:38.259Z,96.95
2023-06-30T11:49:09.184Z,97.15
2023-06-30T11:51:39.344Z,97.28
2023-06-30T11:54:10.143Z,97.33
2023-06-30T11:56:43.359Z,96.65
2023-06-30T11:59:13.472Z,95.52
2023-06-30T12:01:43.959Z,95.61
2023-06-30T12:04:14.359Z,96.15
2023-06-30T12:06:48.152Z,94.85
2023-06-30T12:09:18.264Z,94.48
2023-06-30T12:11:48.772Z,94.84
2023-06-30T12:14:25.503Z,95.40
2023-06-30T12:16:56.327Z,94.67
2023-06-30T12:19:30.136Z,94.47
2023-06-30T12:22:02.337Z,94.63
2023-06-30T12:24:40.184Z,94.10
2023-06-30T12:27:11.047Z,94.39
2023-06-30T12:29:48.473Z,94.24
2023-06-30T12:32:18.965Z,94.83
2023-06-30T12:34:49.081Z,93.76
2023-06-30T12:37:21.520Z,93.74
2023-06-30T12:39:51.533Z,93.87
2023-06-30T12:42:23.275Z,92.61
2023-06-30T12:44:53.497Z,92.78
2023-06-30T12:47:23.696Z,92.63
2023-06-30T12:49:53.812Z,92.83
2023-06-30T12:52:23.756Z,92.54
2023-06-30T12:54:53.618Z,92.90
2023-06-30T12:57:23.680Z,92.00
2023-06-30T12:59:53.546Z,91.61
2023-06-30T13:02:23.657Z,90.91
2023-06-30T13:04:54.283Z,91.27
2023-06-30T13:07:23.884Z,92.03
2023-06-30T13:09:53.235Z,91.52
2023-06-30T13:12:28.161Z,90.63
2023-06-30T13:15:01.102Z,90.85
2023-06-30T13:17:31.282Z,90.01
2023-06-30T13:20:01.426Z,90.79
2023-06-30T13:22:31.579Z,91.07
2023-06-30T13:25:01.732Z,90.92
2023-06-30T13:27:31.765Z,90.95
2023-06-30T13:30:02.337Z,90.60
2023-06-30T13:32:32.382Z,89.76
2023-06-30T13:35:03.076Z,90.03
2023-06-30T13:37:34.400Z,89.19
2023-06-30T13:40:04.892Z,89.67
2023-06-30T13:42:34.540Z,90.38
2023-06-30T13:45:04.318Z,89.77
2023-06-30T13:47:34.691Z,89.12
2023-06-30T13:50:05.304Z,87.57
2023-06-30T13:52:35.084Z,89.78
2023-06-30T13:55:05.519Z,88.64
2023-06-30T13:57:35.918Z,87.92
2023-06-30T14:00:07.651Z,88.82
2023-06-30T14:02:37.614Z,88.11
2023-06-30T14:05:08.017Z,88.94
2023-06-30T14:07:38.298Z,86.98
2023-06-30T14:10:08.815Z,87.90
2023-06-30T14:12:39.557Z,87.93
2023-06-30T14:15:10.351Z,86.60
2023-06-30T14:17:40.479Z,87.35
2023-06-30T14:20:11.415Z,88.15
2023-06-30T14:22:42.004Z,88.39
2023-06-30T14:25:26.296Z,86.74
2023-06-30T14:27:56.678Z,87.39
2023-06-30T14:30:30.570Z,86.77
2023-06-30T14:33:03.391Z,86.97
2023-06-30T14:35:34.013Z,87.51
2023-06-30T14:38:05.205Z,88.10
2023-06-30T14:40:35.924Z,86.25
2023-06-30T14:43:07.283Z,86.24
2023-06-30T14:45:37.672Z,86.09
2023-06-30T14:48:08.197Z,85.63
2023-06-30T14:50:38.779Z,86.20
2023-06-30T14:53:08.545Z,86.39
2023-06-30T14:55:42.577Z,85.41
2023-06-30T14:58:12.922Z,86.53
2023-06-30T15:00:43.018Z,86.03
2023-06-30T15:03:13.447Z,88.37
2023-06-30T15:05:44.228Z,86.80
2023-06-30T15:08:14.807Z,87.28
2023-06-30T15:10:45.471Z,85.57
2023-06-30T15:13:15.536Z,85.45
2023-06-30T15:15:46.148Z,85.81
2023-06-30T15:18:36.252Z,83.58
2023-06-30T15:21:07.040Z,85.69
2023-06-30T15:23:37.143Z,85.90
2023-06-30T15:26:07.427Z,85.29
2023-06-30T15:28:37.936Z,85.22
2023-06-30T15:31:07.536Z,85.52
2023-06-30T15:33:36.975Z,86.77
2023-06-30T15:36:07.345Z,85.00
2023-06-30T15:38:37.398Z,85.63
2023-06-30T15:41:21.729Z,85.02
2023-06-30T15:43:53.087Z,85.44
2023-06-30T15:46:23.066Z,86.19
2023-06-30T15:48:53.148Z,86.10
2023-06-30T15:51:23.560Z,87.02
2023-06-30T15:53:53.121Z,86.47
2023-06-30T15:56:24.169Z,85.11
2023-06-30T15:58:54.306Z,85.95
2023-06-30T16:01:24.272Z,86.67
2023-06-30T16:03:54.902Z,86.48
2023-06-30T16:06:25.427Z,85.48
2023-06-30T16:08:55.276Z,85.62
2023-06-30T16:11:25.396Z,86.38
2023-06-30T16:13:55.547Z,87.26
2023-06-30T16:16:25.677Z,86.09
2023-06-30T16:18:55.921Z,86.05
2023-06-30T16:21:45.410Z,85.88
2023-06-30T16:24:15.463Z,86.51
2023-06-30T16:26:46.899Z,86.09
2023-06-30T16:29:16.959Z,85.80
2023-06-30T16:31:47.046Z,86.32
2023-06-30T16:34:17.147Z,85.59
2023-06-30T16:36:47.358Z,84.80
2023-06-30T16:39:17.414Z,84.07
2023-06-30T16:41:47.759Z,84.44
2023-06-30T16:44:18.430Z,83.41
2023-06-30T16:46:48.053Z,84.74
2023-06-30T16:49:18.115Z,83.97
2023-06-30T16:51:48.214Z,84.51
2023-06-30T16:54:18.010Z,83.62
2023-06-30T16:56:48.407Z,83.13
2023-06-30T16:59:17.958Z,83.11
2023-06-30T17:01:47.949Z,82.46
2023-06-30T17:04:26.646Z,80.68
2023-06-30T17:06:56.564Z,82.05
2023-06-30T17:09:26.567Z,84.41
2023-06-30T17:11:56.655Z,85.29
2023-06-30T17:14:26.420Z,83.54
2023-06-30T17:16:56.926Z,80.87
2023-06-30T17:19:29.912Z,82.42
2023-06-30T17:22:00.317Z,83.56
2023-06-30T17:24:30.365Z,84.62
2023-06-30T17:27:00.475Z,81.67
2023-06-30T17:29:30.672Z,82.23
2023-06-30T17:32:00.838Z,82.30
2023-06-30T17:34:30.681Z,83.23
2023-06-30T17:37:08.480Z,80.44
2023-06-30T17:39:39.937Z,81.73
2023-06-30T17:42:10.646Z,83.40
2023-06-30T17:44:42.633Z,83.81
2023-06-30T17:47:13.177Z,82.98
2023-06-30T17:49:44.101Z,82.83
2023-06-30T17:52:14.514Z,83.18
2023-06-30T17:54:44.189Z,85.19
2023-06-30T17:57:15.598Z,83.91
2023-06-30T17:59:45.903Z,84.44
2023-06-30T18:02:16.283Z,84.05
2023-06-30T18:04:46.621Z,82.17
2023-06-30T18:07:16.776Z,82.85
2023-06-30T18:09:49.491Z,83.22
2023-06-30T18:12:19.717Z,83.67
2023-06-30T18:14:49.792Z,83.65
2023-06-30T18:17:19.678Z,84.09
2023-06-30T18:19:49.546Z,84.15
2023-06-30T18:22:21.136Z,84.09
2023-06-30T18:24:52.084Z,84.51
2023-06-30T18:27:22.216Z,83.84
2023-06-30T18:29:53.671Z,84.46
2023-06-30T18:32:23.853Z,85.11
2023-06-30T18:34:54.750Z,84.18
2023-06-30T18:37:24.894Z,84.46
2023-06-30T18:39:54.661Z,85.10
2023-06-30T18:42:24.767Z,85.06
2023-06-30T18:44:54.371Z,85.69
2023-06-30T18:47:24.351Z,85.06
2023-06-30T18:49:54.419Z,85.11
2023-06-30T18:52:24.498Z,85.63
2023-06-30T18:54:54.497Z,85.75
2023-06-30T18:57:24.432Z,85.40
2023-06-30T18:59:56.388Z,87.02
2023-06-30T19:02:28.204Z,85.76
2023-06-30T19:04:58.593Z,85.66
2023-06-30T19:07:28.421Z,86.13
2023-06-30T19:09:58.228Z,86.20
2023-06-30T19:12:28.347Z,86.18
2023-06-30T19:14:58.570Z,86.90
2023-06-30T19:17:28.950Z,87.24
2023-06-30T19:20:00.312Z,86.89
2023-06-30T19:22:30.542Z,86.20
2023-06-30T19:25:01.033Z,86.73
2023-06-30T19:27:31.192Z,86.57
2023-06-30T19:30:01.990Z,86.51
2023-06-30T19:32:33.263Z,86.99
2023-06-30T19:35:04.149Z,86.74
2023-06-30T19:37:34.582Z,87.30
2023-06-30T19:40:04.831Z,87.02
2023-06-30T19:42:35.305Z,87.96
2023-06-30T19:45:07.784Z,87.40
2023-06-30T19:47:40.083Z,87.37
2023-06-30T19:50:11.043Z,87.82
2023-06-30T19:52:41.312Z,88.10
2023-06-30T19:55:11.612Z,88.68
2023-06-30T19:57:42.298Z,88.89
2023-06-30T20:00:13.080Z,88.58
2023-06-30T20:02:47.089Z,88.89
2023-06-30T20:05:17.932Z,88.68
2023-06-30T20:07:48.068Z,88.58
2023-06-30T20:10:18.337Z,89.12
2023-06-30T20:12:48.707Z,89.29
2023-06-30T20:15:18.847Z,89.42
2023-06-30T20:17:49.237Z,89.61
2023-06-30T20:20:19.408Z,89.59
2023-06-30T20:22:49.277Z,89.69
2023-06-30T20:25:20.643Z,90.29
2023-06-30T20:27:50.844Z,90.41
2023-06-30T20:30:20.689Z,90.45
2023-06-30T20:32:50.684Z,90.70
2023-06-30T20:35:21.267Z,90.27
2023-06-30T20:37:51.327Z,90.38
2023-06-30T20:40:21.441Z,91.00
2023-06-30T20:42:52.014Z,91.25
2023-06-30T20:45:22.260Z,91.33
2023-06-30T20:47:53.338Z,91.44
2023-06-30T20:50:23.481Z,91.57
2023-06-30T20:52:53.708Z,91.78
2023-06-30T20:55:23.894Z,91.45
2023-06-30T20:57:55.313Z,91.69
2023-06-30T21:00:25.383Z,91.94
2023-06-30T21:02:55.565Z,92.29
2023-06-30T21:05:25.744Z,92.42
2023-06-30T21:07:55.607Z,92.56
2023-06-30T21:10:25.719Z,92.87
2023-06-30T21:12:57.625Z,93.11
2023-06-30T21:15:28.540Z,92.96
2023-06-30T21:17:58.741Z,93.07
2023-06-30T21:20:28.846Z,92.67
2023-06-30T21:22:59.038Z,92.48
2023-06-30T21:25:28.947Z,92.45
2023-06-30T21:27:59.137Z,92.87
2023-06-30T21:30:29.295Z,93.02
2023-06-30T21:33:01.296Z,92.90
2023-06-30T21:35:32.536Z,93.37
2023-06-30T21:38:02.747Z,93.44
2023-06-30T21:40:32.598Z,93.09
2023-06-30T21:43:03.042Z,93.45
2023-06-30T21:45:32.646Z,93.51
2023-06-30T21:48:02.108Z,93.00
2023-06-30T21:50:32.188Z,93.12
2023-06-30T21:53:02.233Z,93.32
2023-06-30T21:55:32.514Z,93.62
2023-06-30T21:58:06.475Z,94.04
2023-06-30T22:00:41.658Z,93.94
2023-06-30T22:03:11.580Z,94.10
2023-06-30T22:05:42.442Z,93.99
2023-06-30T22:08:15.118Z,94.02
2023-06-30T22:10:45.859Z,93.96
2023-06-30T22:13:16.392Z,93.82
2023-06-30T22:15:46.614Z,93.52
2023-06-30T22:18:16.765Z,93.98
2023-06-30T22:20:46.882Z,93.99
2023-06-30T22:23:17.218Z,93.98
2023-06-30T22:25:47.398Z,93.87
2023-06-30T22:28:17.503Z,93.96
2023-06-30T22:30:48.546Z,94.29
2023-06-30T22:33:18.911Z,94.31
2023-06-30T22:35:49.307Z,94.67
2023-06-30T22:38:19.474Z,94.92
2023-06-30T22:40:49.822Z,94.94
2023-06-30T22:43:19.935Z,95.24
2023-06-30T22:45:51.525Z,95.33
2023-06-30T22:48:21.658Z,95.43
2023-06-30T22:50:52.116Z,95.37
2023-06-30T22:53:23.081Z,95.63
2023-06-30T22:55:53.182Z,95.72
2023-06-30T22:58:23.272Z,95.87
2023-06-30T23:00:53.539Z,95.79
2023-06-30T23:03:24.172Z,95.85
2023-06-30T23:05:53.818Z,95.61
2023-06-30T23:08:23.075Z,96.02
2023-06-30T23:10:52.323Z,96.01
2023-06-30T23:13:21.641Z,95.99
2023-06-30T23:15:51.427Z,95.89
2023-06-30T23:18:21.589Z,96.14
2023-06-30T23:20:51.851Z,96.30
2023-06-30T23:23:30.337Z,96.36
2023-06-30T23:26:00.392Z,96.57
2023-06-30T23:28:30.481Z,96.79
2023-06-30T23:31:00.604Z,96.73
2023-06-30T23:33:30.754Z,96.90
2023-06-30T23:36:00.663Z,96.86
2023-06-30T23:38:30.829Z,96.72
2023-06-30T23:41:01.219Z,96.96
2023-06-30T23:43:31.365Z,97.33
2023-06-30T23:46:01.456Z,97.38
2023-06-30T23:48:31.932Z,97.36
2023-06-30T23:51:02.023Z,97.37
2023-06-30T23:53:32.169Z,97.78
2023-06-30T23:56:02.294Z,97.82
2023-06-30T23:58:32.374Z,97.48
